sensor_id;sensor_type;location;lat;lon;timestamp;temperature;humidity
2929;DHT22;1474;51.460;7.150;2024-01-06T00:01:14;14.90;63.90
2929;DHT22;1474;51.460;7.150;2024-01-06T00:04:02;14.90;63.90
2929;DHT22;1474;51.460;7.150;2024-01-06T00:06:46;14.90;63.90
2929;DHT22;1474;51.460;7.150;2024-01-06T00:09:31;14.90;63.80
2929;DHT22;1474;51.460;7.150;2024-01-06T00:12:15;14.90;63.80
2929;DHT22;1474;51.460;7.150;2024-01-06T00:15:00;14.90;63.90
2929;DHT22;1474;51.460;7.150;2024-01-06T00:17:44;14.90;63.90
2929;DHT22;1474;51.460;7.150;2024-01-06T00:20:29;14.90;63.90
2929;DHT22;1474;51.460;7.150;2024-01-06T00:23:13;14.90;63.90
2929;DHT22;1474;51.460;7.150;2024-01-06T00:25:58;14.90;63.90
2929;DHT22;1474;51.460;7.150;2024-01-06T00:28:43;14.90;63.90
2929;DHT22;1474;51.460;7.150;2024-01-06T00:31:27;14.90;63.90
2929;DHT22;1474;51.460;7.150;2024-01-06T00:34:12;14.90;63.90
2929;DHT22;1474;51.460;7.150;2024-01-06T00:36:56;14.90;63.90
2929;DHT22;1474;51.460;7.150;2024-01-06T00:39:41;14.90;63.80
2929;DHT22;1474;51.460;7.150;2024-01-06T00:42:26;14.90;63.80
2929;DHT22;1474;51.460;7.150;2024-01-06T00:45:10;14.90;63.80
2929;DHT22;1474;51.460;7.150;2024-01-06T00:47:55;14.90;63.80
2929;DHT22;1474;51.460;7.150;2024-01-06T00:50:39;14.90;63.80
2929;DHT22;1474;51.460;7.150;2024-01-06T00:53:23;14.90;63.80
2929;DHT22;1474;51.460;7.150;2024-01-06T00:56:08;14.90;63.80
2929;DHT22;1474;51.460;7.150;2024-01-06T00:58:53;14.90;63.80
2929;DHT22;1474;51.460;7.150;2024-01-06T01:01:37;14.90;63.80
2929;DHT22;1474;51.460;7.150;2024-01-06T01:04:22;14.90;63.80
2929;DHT22;1474;51.460;7.150;2024-01-06T01:07:06;14.90;63.80
2929;DHT22;1474;51.460;7.150;2024-01-06T01:09:51;14.90;63.90
2929;DHT22;1474;51.460;7.150;2024-01-06T01:12:36;14.90;63.80
2929;DHT22;1474;51.460;7.150;2024-01-06T01:15:20;14.90;63.80
2929;DHT22;1474;51.460;7.150;2024-01-06T01:18:05;14.90;63.80
2929;DHT22;1474;51.460;7.150;2024-01-06T01:20:49;14.90;63.80
2929;DHT22;1474;51.460;7.150;2024-01-06T01:23:34;14.90;63.80
2929;DHT22;1474;51.460;7.150;2024-01-06T01:26:18;14.90;63.80
2929;DHT22;1474;51.460;7.150;2024-01-06T01:29:03;14.90;63.80
2929;DHT22;1474;51.460;7.150;2024-01-06T01:31:47;14.90;63.80
2929;DHT22;1474;51.460;7.150;2024-01-06T01:34:32;14.90;63.80
2929;DHT22;1474;51.460;7.150;2024-01-06T01:37:16;14.90;63.80
2929;DHT22;1474;51.460;7.150;2024-01-06T01:40:01;14.90;63.80
2929;DHT22;1474;51.460;7.150;2024-01-06T01:42:45;14.90;63.80
2929;DHT22;1474;51.460;7.150;2024-01-06T01:45:30;14.90;63.80
2929;DHT22;1474;51.460;7.150;2024-01-06T01:48:15;15.00;63.90
2929;DHT22;1474;51.460;7.150;2024-01-06T01:50:59;14.90;63.80
2929;DHT22;1474;51.460;7.150;2024-01-06T01:53:44;14.90;63.80
2929;DHT22;1474;51.460;7.150;2024-01-06T01:56:31;14.90;63.80
2929;DHT22;1474;51.460;7.150;2024-01-06T01:59:19;14.90;63.80
2929;DHT22;1474;51.460;7.150;2024-01-06T02:02:04;14.90;63.80
2929;DHT22;1474;51.460;7.150;2024-01-06T02:04:49;14.90;63.80
2929;DHT22;1474;51.460;7.150;2024-01-06T02:07:33;14.90;63.90
2929;DHT22;1474;51.460;7.150;2024-01-06T02:10:18;14.90;63.80
2929;DHT22;1474;51.460;7.150;2024-01-06T02:13:12;14.90;63.80
2929;DHT22;1474;51.460;7.150;2024-01-06T02:15:56;14.90;63.80
2929;DHT22;1474;51.460;7.150;2024-01-06T02:18:41;14.90;63.80
2929;DHT22;1474;51.460;7.150;2024-01-06T02:21:27;14.90;63.80
2929;DHT22;1474;51.460;7.150;2024-01-06T02:24:15;14.90;63.80
2929;DHT22;1474;51.460;7.150;2024-01-06T02:26:59;14.90;63.90
2929;DHT22;1474;51.460;7.150;2024-01-06T02:29:44;14.90;63.80
2929;DHT22;1474;51.460;7.150;2024-01-06T02:32:28;14.90;63.80
2929;DHT22;1474;51.460;7.150;2024-01-06T02:35:13;14.90;63.80
2929;DHT22;1474;51.460;7.150;2024-01-06T02:37:57;14.90;63.80
2929;DHT22;1474;51.460;7.150;2024-01-06T02:40:42;14.90;63.80
2929;DHT22;1474;51.460;7.150;2024-01-06T02:43:29;14.90;63.80
2929;DHT22;1474;51.460;7.150;2024-01-06T02:46:14;14.90;63.90
2929;DHT22;1474;51.460;7.150;2024-01-06T02:48:58;14.90;64.40
2929;DHT22;1474;51.460;7.150;2024-01-06T02:51:43;14.90;63.80
2929;DHT22;1474;51.460;7.150;2024-01-06T02:54:27;14.90;63.80
2929;DHT22;1474;51.460;7.150;2024-01-06T02:57:12;14.90;63.80
2929;DHT22;1474;51.460;7.150;2024-01-06T02:59:57;14.90;63.80
2929;DHT22;1474;51.460;7.150;2024-01-06T03:02:41;14.90;63.80
2929;DHT22;1474;51.460;7.150;2024-01-06T03:05:26;14.90;63.80
2929;DHT22;1474;51.460;7.150;2024-01-06T03:08:11;14.90;63.80
2929;DHT22;1474;51.460;7.150;2024-01-06T03:10:55;14.90;63.80
2929;DHT22;1474;51.460;7.150;2024-01-06T03:13:40;14.90;63.80
2929;DHT22;1474;51.460;7.150;2024-01-06T03:16:25;14.90;63.90
2929;DHT22;1474;51.460;7.150;2024-01-06T03:19:09;14.90;63.80
2929;DHT22;1474;51.460;7.150;2024-01-06T03:21:54;14.90;63.80
2929;DHT22;1474;51.460;7.150;2024-01-06T03:24:40;14.90;63.80
2929;DHT22;1474;51.460;7.150;2024-01-06T03:27:24;15.00;63.90
2929;DHT22;1474;51.460;7.150;2024-01-06T03:30:09;14.90;63.80
2929;DHT22;1474;51.460;7.150;2024-01-06T03:32:54;14.90;63.80
2929;DHT22;1474;51.460;7.150;2024-01-06T03:35:39;14.90;63.80
2929;DHT22;1474;51.460;7.150;2024-01-06T03:38:23;14.90;63.80
2929;DHT22;1474;51.460;7.150;2024-01-06T03:41:08;14.90;63.80
2929;DHT22;1474;51.460;7.150;2024-01-06T03:43:52;14.90;63.80
2929;DHT22;1474;51.460;7.150;2024-01-06T03:46:37;15.00;63.90
2929;DHT22;1474;51.460;7.150;2024-01-06T03:49:21;14.90;63.80
2929;DHT22;1474;51.460;7.150;2024-01-06T03:52:08;14.90;63.80
2929;DHT22;1474;51.460;7.150;2024-01-06T03:54:53;14.90;63.80
2929;DHT22;1474;51.460;7.150;2024-01-06T03:57:37;14.90;63.80
2929;DHT22;1474;51.460;7.150;2024-01-06T04:00:24;14.90;63.80
2929;DHT22;1474;51.460;7.150;2024-01-06T04:03:10;14.90;63.80
2929;DHT22;1474;51.460;7.150;2024-01-06T04:05:54;14.90;63.80
2929;DHT22;1474;51.460;7.150;2024-01-06T04:08:40;14.90;63.80
2929;DHT22;1474;51.460;7.150;2024-01-06T04:11:25;14.90;63.80
2929;DHT22;1474;51.460;7.150;2024-01-06T04:14:10;14.90;63.80
2929;DHT22;1474;51.460;7.150;2024-01-06T04:16:54;14.90;63.80
2929;DHT22;1474;51.460;7.150;2024-01-06T04:19:40;14.90;63.80
2929;DHT22;1474;51.460;7.150;2024-01-06T04:22:24;14.90;63.80
2929;DHT22;1474;51.460;7.150;2024-01-06T04:25:09;14.90;63.80
2929;DHT22;1474;51.460;7.150;2024-01-06T04:27:53;14.90;63.80
2929;DHT22;1474;51.460;7.150;2024-01-06T04:30:38;14.90;63.80
2929;DHT22;1474;51.460;7.150;2024-01-06T04:33:22;14.90;63.80
2929;DHT22;1474;51.460;7.150;2024-01-06T04:36:07;14.90;63.80
2929;DHT22;1474;51.460;7.150;2024-01-06T04:38:51;14.90;63.80
2929;DHT22;1474;51.460;7.150;2024-01-06T04:41:36;15.00;63.90
2929;DHT22;1474;51.460;7.150;2024-01-06T04:44:21;14.90;63.80
2929;DHT22;1474;51.460;7.150;2024-01-06T04:47:06;14.90;63.80
2929;DHT22;1474;51.460;7.150;2024-01-06T04:49:53;14.90;63.80
2929;DHT22;1474;51.460;7.150;2024-01-06T04:52:38;14.90;63.80
2929;DHT22;1474;51.460;7.150;2024-01-06T04:55:22;14.90;63.80
2929;DHT22;1474;51.460;7.150;2024-01-06T04:58:07;14.90;63.80
2929;DHT22;1474;51.460;7.150;2024-01-06T05:00:51;14.90;63.80
2929;DHT22;1474;51.460;7.150;2024-01-06T05:03:36;14.90;63.80
2929;DHT22;1474;51.460;7.150;2024-01-06T05:06:21;14.90;63.80
2929;DHT22;1474;51.460;7.150;2024-01-06T05:09:07;14.90;63.80
2929;DHT22;1474;51.460;7.150;2024-01-06T05:11:51;14.90;63.80
2929;DHT22;1474;51.460;7.150;2024-01-06T05:14:36;14.90;63.80
2929;DHT22;1474;51.460;7.150;2024-01-06T05:17:20;14.90;63.80
2929;DHT22;1474;51.460;7.150;2024-01-06T05:20:05;14.90;63.80
2929;DHT22;1474;51.460;7.150;2024-01-06T05:22:50;14.90;63.80
2929;DHT22;1474;51.460;7.150;2024-01-06T05:25:35;14.90;63.80
2929;DHT22;1474;51.460;7.150;2024-01-06T05:28:20;14.90;63.80
2929;DHT22;1474;51.460;7.150;2024-01-06T05:31:04;14.90;63.80
2929;DHT22;1474;51.460;7.150;2024-01-06T05:33:49;14.90;63.80
2929;DHT22;1474;51.460;7.150;2024-01-06T05:36:33;14.90;63.80
2929;DHT22;1474;51.460;7.150;2024-01-06T05:39:18;14.90;63.80
2929;DHT22;1474;51.460;7.150;2024-01-06T05:42:02;14.90;63.80
2929;DHT22;1474;51.460;7.150;2024-01-06T05:44:47;14.90;63.80
2929;DHT22;1474;51.460;7.150;2024-01-06T05:47:32;14.90;63.80
2929;DHT22;1474;51.460;7.150;2024-01-06T05:50:16;14.90;63.80
2929;DHT22;1474;51.460;7.150;2024-01-06T05:53:01;14.90;63.80
2929;DHT22;1474;51.460;7.150;2024-01-06T05:55:45;14.90;63.80
2929;DHT22;1474;51.460;7.150;2024-01-06T05:58:30;14.90;63.70
2929;DHT22;1474;51.460;7.150;2024-01-06T06:01:14;14.90;63.80
2929;DHT22;1474;51.460;7.150;2024-01-06T06:03:40;14.90;63.80
2929;DHT22;1474;51.460;7.150;2024-01-06T06:06:06;14.90;63.70
2929;DHT22;1474;51.460;7.150;2024-01-06T06:08:32;14.90;63.70
2929;DHT22;1474;51.460;7.150;2024-01-06T06:10:58;14.90;63.70
2929;DHT22;1474;51.460;7.150;2024-01-06T06:13:28;14.90;63.70
2929;DHT22;1474;51.460;7.150;2024-01-06T06:15:54;14.90;63.70
2929;DHT22;1474;51.460;7.150;2024-01-06T06:18:20;14.90;63.70
2929;DHT22;1474;51.460;7.150;2024-01-06T06:20:46;14.90;63.70
2929;DHT22;1474;51.460;7.150;2024-01-06T06:23:12;14.90;63.70
2929;DHT22;1474;51.460;7.150;2024-01-06T06:25:39;14.90;63.70
2929;DHT22;1474;51.460;7.150;2024-01-06T06:28:05;14.90;63.70
2929;DHT22;1474;51.460;7.150;2024-01-06T06:30:32;14.90;63.60
2929;DHT22;1474;51.460;7.150;2024-01-06T06:32:58;14.90;63.70
2929;DHT22;1474;51.460;7.150;2024-01-06T06:35:24;14.90;63.60
2929;DHT22;1474;51.460;7.150;2024-01-06T06:37:51;14.90;63.60
2929;DHT22;1474;51.460;7.150;2024-01-06T06:40:17;14.90;63.60
2929;DHT22;1474;51.460;7.150;2024-01-06T06:42:42;14.90;63.60
2929;DHT22;1474;51.460;7.150;2024-01-06T06:45:08;15.00;63.70
2929;DHT22;1474;51.460;7.150;2024-01-06T06:47:37;14.90;63.60
2929;DHT22;1474;51.460;7.150;2024-01-06T06:50:03;14.90;63.60
2929;DHT22;1474;51.460;7.150;2024-01-06T06:52:29;15.00;63.70
2929;DHT22;1474;51.460;7.150;2024-01-06T06:54:55;14.90;63.60
2929;DHT22;1474;51.460;7.150;2024-01-06T06:57:20;14.90;63.60
2929;DHT22;1474;51.460;7.150;2024-01-06T06:59:46;14.90;63.60
2929;DHT22;1474;51.460;7.150;2024-01-06T07:02:12;14.90;63.60
2929;DHT22;1474;51.460;7.150;2024-01-06T07:04:37;14.90;63.60
2929;DHT22;1474;51.460;7.150;2024-01-06T07:07:03;14.90;63.60
2929;DHT22;1474;51.460;7.150;2024-01-06T07:09:29;14.90;63.60
2929;DHT22;1474;51.460;7.150;2024-01-06T07:11:55;14.90;63.60
2929;DHT22;1474;51.460;7.150;2024-01-06T07:14:21;15.00;64.20
2929;DHT22;1474;51.460;7.150;2024-01-06T07:16:46;14.90;63.60
2929;DHT22;1474;51.460;7.150;2024-01-06T07:19:12;14.90;63.60
2929;DHT22;1474;51.460;7.150;2024-01-06T07:21:38;14.90;63.60
2929;DHT22;1474;51.460;7.150;2024-01-06T07:24:04;14.90;63.60
2929;DHT22;1474;51.460;7.150;2024-01-06T07:26:30;14.90;63.60
2929;DHT22;1474;51.460;7.150;2024-01-06T07:28:55;14.90;63.60
2929;DHT22;1474;51.460;7.150;2024-01-06T07:31:21;14.90;63.60
2929;DHT22;1474;51.460;7.150;2024-01-06T07:36:15;15.00;63.60
2929;DHT22;1474;51.460;7.150;2024-01-06T07:38:41;14.90;63.60
2929;DHT22;1474;51.460;7.150;2024-01-06T07:41:07;15.00;63.60
2929;DHT22;1474;51.460;7.150;2024-01-06T07:43:33;14.90;63.60
2929;DHT22;1474;51.460;7.150;2024-01-06T07:45:58;15.00;63.60
2929;DHT22;1474;51.460;7.150;2024-01-06T07:48:24;15.00;63.70
2929;DHT22;1474;51.460;7.150;2024-01-06T07:50:50;15.00;63.60
2929;DHT22;1474;51.460;7.150;2024-01-06T07:53:16;14.90;63.60
2929;DHT22;1474;51.460;7.150;2024-01-06T07:55:42;14.90;63.60
2929;DHT22;1474;51.460;7.150;2024-01-06T07:58:08;14.90;63.60
2929;DHT22;1474;51.460;7.150;2024-01-06T08:00:34;14.90;63.60
2929;DHT22;1474;51.460;7.150;2024-01-06T08:02:59;14.90;63.60
2929;DHT22;1474;51.460;7.150;2024-01-06T08:05:25;14.90;63.50
2929;DHT22;1474;51.460;7.150;2024-01-06T08:07:51;14.90;63.60
2929;DHT22;1474;51.460;7.150;2024-01-06T08:10:17;14.90;64.10
2929;DHT22;1474;51.460;7.150;2024-01-06T08:12:43;14.90;63.60
2929;DHT22;1474;51.460;7.150;2024-01-06T08:15:09;14.90;63.60
2929;DHT22;1474;51.460;7.150;2024-01-06T08:17:38;14.90;63.60
2929;DHT22;1474;51.460;7.150;2024-01-06T08:20:06;14.90;63.60
2929;DHT22;1474;51.460;7.150;2024-01-06T08:22:33;14.90;63.60
2929;DHT22;1474;51.460;7.150;2024-01-06T08:24:59;14.90;63.60
2929;DHT22;1474;51.460;7.150;2024-01-06T08:27:28;14.90;63.60
2929;DHT22;1474;51.460;7.150;2024-01-06T08:29:53;14.90;63.50
2929;DHT22;1474;51.460;7.150;2024-01-06T08:32:19;14.90;63.60
2929;DHT22;1474;51.460;7.150;2024-01-06T08:34:45;14.90;63.60
2929;DHT22;1474;51.460;7.150;2024-01-06T08:37:10;14.90;63.50
2929;DHT22;1474;51.460;7.150;2024-01-06T08:39:36;14.90;63.50
2929;DHT22;1474;51.460;7.150;2024-01-06T08:42:02;15.00;63.70
2929;DHT22;1474;51.460;7.150;2024-01-06T08:44:28;15.00;63.60
2929;DHT22;1474;51.460;7.150;2024-01-06T08:46:54;14.90;63.50
2929;DHT22;1474;51.460;7.150;2024-01-06T08:49:19;15.00;63.60
2929;DHT22;1474;51.460;7.150;2024-01-06T08:51:45;14.90;63.50
2929;DHT22;1474;51.460;7.150;2024-01-06T08:54:11;15.00;63.60
2929;DHT22;1474;51.460;7.150;2024-01-06T08:56:36;15.00;63.60
2929;DHT22;1474;51.460;7.150;2024-01-06T08:59:03;15.00;63.50
2929;DHT22;1474;51.460;7.150;2024-01-06T09:01:28;15.00;63.50
2929;DHT22;1474;51.460;7.150;2024-01-06T09:03:54;15.00;63.50
2929;DHT22;1474;51.460;7.150;2024-01-06T09:06:20;15.00;63.50
2929;DHT22;1474;51.460;7.150;2024-01-06T09:08:46;15.00;63.90
2929;DHT22;1474;51.460;7.150;2024-01-06T09:11:11;15.00;64.10
2929;DHT22;1474;51.460;7.150;2024-01-06T09:13:37;15.10;63.90
2929;DHT22;1474;51.460;7.150;2024-01-06T09:16:03;15.10;64.30
2929;DHT22;1474;51.460;7.150;2024-01-06T09:18:29;15.10;64.10
2929;DHT22;1474;51.460;7.150;2024-01-06T09:20:55;15.20;63.90
2929;DHT22;1474;51.460;7.150;2024-01-06T09:23:22;15.30;64.00
2929;DHT22;1474;51.460;7.150;2024-01-06T09:25:48;15.30;63.90
2929;DHT22;1474;51.460;7.150;2024-01-06T09:28:18;15.40;63.70
2929;DHT22;1474;51.460;7.150;2024-01-06T09:30:44;15.40;63.60
2929;DHT22;1474;51.460;7.150;2024-01-06T09:33:09;15.40;63.50
2929;DHT22;1474;51.460;7.150;2024-01-06T09:35:35;15.50;63.50
2929;DHT22;1474;51.460;7.150;2024-01-06T09:38:01;15.40;63.20
2929;DHT22;1474;51.460;7.150;2024-01-06T09:40:27;15.50;63.20
2929;DHT22;1474;51.460;7.150;2024-01-06T09:42:56;15.50;63.00
2929;DHT22;1474;51.460;7.150;2024-01-06T09:45:22;15.50;63.00
2929;DHT22;1474;51.460;7.150;2024-01-06T09:47:49;15.60;62.90
2929;DHT22;1474;51.460;7.150;2024-01-06T09:50:20;15.50;62.90
2929;DHT22;1474;51.460;7.150;2024-01-06T09:52:47;15.60;62.90
2929;DHT22;1474;51.460;7.150;2024-01-06T09:55:26;15.50;62.70
2929;DHT22;1474;51.460;7.150;2024-01-06T09:57:53;15.50;62.70
2929;DHT22;1474;51.460;7.150;2024-01-06T10:00:19;15.60;62.70
2929;DHT22;1474;51.460;7.150;2024-01-06T10:02:50;15.60;62.70
2929;DHT22;1474;51.460;7.150;2024-01-06T10:05:20;15.50;62.60
2929;DHT22;1474;51.460;7.150;2024-01-06T10:07:47;15.60;62.60
2929;DHT22;1474;51.460;7.150;2024-01-06T10:10:13;15.60;62.50
2929;DHT22;1474;51.460;7.150;2024-01-06T10:12:41;15.60;62.50
2929;DHT22;1474;51.460;7.150;2024-01-06T10:15:08;15.60;62.40
2929;DHT22;1474;51.460;7.150;2024-01-06T10:17:41;15.60;62.40
2929;DHT22;1474;51.460;7.150;2024-01-06T10:20:12;15.60;62.40
2929;DHT22;1474;51.460;7.150;2024-01-06T10:22:41;15.50;62.40
2929;DHT22;1474;51.460;7.150;2024-01-06T10:25:10;15.60;62.40
2929;DHT22;1474;51.460;7.150;2024-01-06T10:27:41;15.50;62.30
2929;DHT22;1474;51.460;7.150;2024-01-06T10:30:07;15.50;62.30
2929;DHT22;1474;51.460;7.150;2024-01-06T10:32:35;15.60;62.40
2929;DHT22;1474;51.460;7.150;2024-01-06T10:35:02;15.60;62.30
2929;DHT22;1474;51.460;7.150;2024-01-06T10:37:29;15.60;62.30
2929;DHT22;1474;51.460;7.150;2024-01-06T10:40:25;15.60;62.30
2929;DHT22;1474;51.460;7.150;2024-01-06T10:42:51;15.50;62.30
2929;DHT22;1474;51.460;7.150;2024-01-06T10:45:17;15.50;62.30
2929;DHT22;1474;51.460;7.150;2024-01-06T10:47:44;15.50;62.30
2929;DHT22;1474;51.460;7.150;2024-01-06T10:50:10;15.50;62.40
2929;DHT22;1474;51.460;7.150;2024-01-06T10:52:38;15.50;62.40
2929;DHT22;1474;51.460;7.150;2024-01-06T10:55:05;15.50;62.40
2929;DHT22;1474;51.460;7.150;2024-01-06T10:57:31;15.40;62.40
2929;DHT22;1474;51.460;7.150;2024-01-06T10:59:59;15.40;62.40
2929;DHT22;1474;51.460;7.150;2024-01-06T11:02:26;15.50;62.50
2929;DHT22;1474;51.460;7.150;2024-01-06T11:04:53;15.40;62.40
2929;DHT22;1474;51.460;7.150;2024-01-06T11:07:21;15.40;62.30
2929;DHT22;1474;51.460;7.150;2024-01-06T11:12:25;15.40;62.30
2929;DHT22;1474;51.460;7.150;2024-01-06T11:14:52;15.40;62.30
2929;DHT22;1474;51.460;7.150;2024-01-06T11:17:54;15.40;62.80
2929;DHT22;1474;51.460;7.150;2024-01-06T11:20:26;15.40;62.30
2929;DHT22;1474;51.460;7.150;2024-01-06T11:22:53;15.40;62.30
2929;DHT22;1474;51.460;7.150;2024-01-06T11:25:20;15.40;62.30
2929;DHT22;1474;51.460;7.150;2024-01-06T11:27:49;15.40;62.30
2929;DHT22;1474;51.460;7.150;2024-01-06T11:30:25;15.40;62.30
2929;DHT22;1474;51.460;7.150;2024-01-06T11:32:53;15.40;62.20
2929;DHT22;1474;51.460;7.150;2024-01-06T11:35:26;15.40;62.30
2929;DHT22;1474;51.460;7.150;2024-01-06T11:37:55;15.40;62.30
2929;DHT22;1474;51.460;7.150;2024-01-06T11:40:23;15.40;62.40
2929;DHT22;1474;51.460;7.150;2024-01-06T11:43:05;15.30;62.30
2929;DHT22;1474;51.460;7.150;2024-01-06T11:45:41;15.30;62.30
2929;DHT22;1474;51.460;7.150;2024-01-06T11:48:10;15.30;62.20
2929;DHT22;1474;51.460;7.150;2024-01-06T11:50:39;15.30;62.30
2929;DHT22;1474;51.460;7.150;2024-01-06T11:53:07;15.30;62.30
2929;DHT22;1474;51.460;7.150;2024-01-06T11:55:35;15.30;62.40
2929;DHT22;1474;51.460;7.150;2024-01-06T11:58:01;15.30;62.40
2929;DHT22;1474;51.460;7.150;2024-01-06T12:00:28;15.30;62.30
2929;DHT22;1474;51.460;7.150;2024-01-06T12:02:58;15.30;62.30
2929;DHT22;1474;51.460;7.150;2024-01-06T12:05:26;15.30;62.30
2929;DHT22;1474;51.460;7.150;2024-01-06T12:08:02;15.30;62.20
2929;DHT22;1474;51.460;7.150;2024-01-06T12:10:32;15.30;62.30
2929;DHT22;1474;51.460;7.150;2024-01-06T12:13:03;15.30;62.30
2929;DHT22;1474;51.460;7.150;2024-01-06T12:15:32;15.30;62.30
2929;DHT22;1474;51.460;7.150;2024-01-06T12:17:58;15.20;62.30
2929;DHT22;1474;51.460;7.150;2024-01-06T12:20:26;15.20;62.30
2929;DHT22;1474;51.460;7.150;2024-01-06T12:22:54;15.20;62.30
2929;DHT22;1474;51.460;7.150;2024-01-06T12:25:22;15.20;62.30
2929;DHT22;1474;51.460;7.150;2024-01-06T12:27:49;15.20;62.30
2929;DHT22;1474;51.460;7.150;2024-01-06T12:30:17;15.20;62.30
2929;DHT22;1474;51.460;7.150;2024-01-06T12:32:46;15.20;62.40
2929;DHT22;1474;51.460;7.150;2024-01-06T12:35:13;15.10;62.40
2929;DHT22;1474;51.460;7.150;2024-01-06T12:37:41;15.20;62.40
2929;DHT22;1474;51.460;7.150;2024-01-06T12:40:15;15.10;62.50
2929;DHT22;1474;51.460;7.150;2024-01-06T12:42:43;15.10;62.50
2929;DHT22;1474;51.460;7.150;2024-01-06T12:45:09;15.10;62.50
2929;DHT22;1474;51.460;7.150;2024-01-06T12:47:35;15.10;62.50
2929;DHT22;1474;51.460;7.150;2024-01-06T12:50:02;15.10;62.60
2929;DHT22;1474;51.460;7.150;2024-01-06T12:52:30;15.10;62.50
2929;DHT22;1474;51.460;7.150;2024-01-06T12:54:55;15.10;62.60
2929;DHT22;1474;51.460;7.150;2024-01-06T12:57:21;15.10;62.70
2929;DHT22;1474;51.460;7.150;2024-01-06T12:59:47;15.10;62.70
2929;DHT22;1474;51.460;7.150;2024-01-06T13:02:13;15.10;62.70
2929;DHT22;1474;51.460;7.150;2024-01-06T13:04:39;15.00;62.70
2929;DHT22;1474;51.460;7.150;2024-01-06T13:07:05;15.10;62.70
2929;DHT22;1474;51.460;7.150;2024-01-06T13:09:31;15.10;62.70
2929;DHT22;1474;51.460;7.150;2024-01-06T13:12:00;15.10;62.80
2929;DHT22;1474;51.460;7.150;2024-01-06T13:14:27;15.10;62.80
2929;DHT22;1474;51.460;7.150;2024-01-06T13:16:54;15.00;62.70
2929;DHT22;1474;51.460;7.150;2024-01-06T13:19:20;15.10;62.70
2929;DHT22;1474;51.460;7.150;2024-01-06T13:21:46;15.10;63.30
2929;DHT22;1474;51.460;7.150;2024-01-06T13:24:12;15.10;62.80
2929;DHT22;1474;51.460;7.150;2024-01-06T13:26:38;15.00;62.70
2929;DHT22;1474;51.460;7.150;2024-01-06T13:29:04;15.10;62.80
2929;DHT22;1474;51.460;7.150;2024-01-06T13:31:30;15.10;62.80
2929;DHT22;1474;51.460;7.150;2024-01-06T13:33:56;15.00;62.70
2929;DHT22;1474;51.460;7.150;2024-01-06T13:36:22;15.10;62.80
2929;DHT22;1474;51.460;7.150;2024-01-06T13:38:48;15.10;62.80
2929;DHT22;1474;51.460;7.150;2024-01-06T13:41:15;15.00;62.80
2929;DHT22;1474;51.460;7.150;2024-01-06T13:43:41;15.10;62.80
2929;DHT22;1474;51.460;7.150;2024-01-06T13:46:07;15.00;62.80
2929;DHT22;1474;51.460;7.150;2024-01-06T13:48:33;15.00;62.80
2929;DHT22;1474;51.460;7.150;2024-01-06T13:50:59;15.00;62.80
2929;DHT22;1474;51.460;7.150;2024-01-06T13:53:25;15.00;62.80
2929;DHT22;1474;51.460;7.150;2024-01-06T13:55:51;15.10;62.80
2929;DHT22;1474;51.460;7.150;2024-01-06T13:58:17;15.00;62.80
2929;DHT22;1474;51.460;7.150;2024-01-06T14:00:43;15.00;62.80
2929;DHT22;1474;51.460;7.150;2024-01-06T14:03:09;15.00;62.80
2929;DHT22;1474;51.460;7.150;2024-01-06T14:05:36;15.00;62.80
2929;DHT22;1474;51.460;7.150;2024-01-06T14:08:03;15.00;62.80
2929;DHT22;1474;51.460;7.150;2024-01-06T14:10:29;15.00;62.80
2929;DHT22;1474;51.460;7.150;2024-01-06T14:12:57;15.00;62.80
2929;DHT22;1474;51.460;7.150;2024-01-06T14:15:22;15.00;62.80
2929;DHT22;1474;51.460;7.150;2024-01-06T14:17:48;15.00;62.80
2929;DHT22;1474;51.460;7.150;2024-01-06T14:20:16;15.00;62.80
2929;DHT22;1474;51.460;7.150;2024-01-06T14:22:49;15.00;62.80
2929;DHT22;1474;51.460;7.150;2024-01-06T14:25:15;15.00;62.80
2929;DHT22;1474;51.460;7.150;2024-01-06T14:27:43;15.00;63.30
2929;DHT22;1474;51.460;7.150;2024-01-06T14:30:10;15.00;62.80
2929;DHT22;1474;51.460;7.150;2024-01-06T14:32:36;15.00;62.80
2929;DHT22;1474;51.460;7.150;2024-01-06T14:35:05;15.00;62.80
2929;DHT22;1474;51.460;7.150;2024-01-06T14:37:37;15.00;62.80
2929;DHT22;1474;51.460;7.150;2024-01-06T14:40:04;15.00;62.80
2929;DHT22;1474;51.460;7.150;2024-01-06T14:42:32;15.00;62.80
2929;DHT22;1474;51.460;7.150;2024-01-06T14:44:59;15.00;62.70
2929;DHT22;1474;51.460;7.150;2024-01-06T14:47:27;15.00;62.80
2929;DHT22;1474;51.460;7.150;2024-01-06T14:49:53;15.00;62.80
2929;DHT22;1474;51.460;7.150;2024-01-06T14:52:20;15.00;62.80
2929;DHT22;1474;51.460;7.150;2024-01-06T14:54:46;15.00;62.80
2929;DHT22;1474;51.460;7.150;2024-01-06T14:57:11;15.00;62.70
2929;DHT22;1474;51.460;7.150;2024-01-06T14:59:37;15.00;62.70
2929;DHT22;1474;51.460;7.150;2024-01-06T15:02:03;15.00;62.80
2929;DHT22;1474;51.460;7.150;2024-01-06T15:04:29;15.00;62.80
2929;DHT22;1474;51.460;7.150;2024-01-06T15:06:55;14.90;62.70
2929;DHT22;1474;51.460;7.150;2024-01-06T15:09:21;15.00;62.80
2929;DHT22;1474;51.460;7.150;2024-01-06T15:11:49;15.00;63.30
2929;DHT22;1474;51.460;7.150;2024-01-06T15:14:15;15.00;62.80
2929;DHT22;1474;51.460;7.150;2024-01-06T15:16:41;14.90;62.80
2929;DHT22;1474;51.460;7.150;2024-01-06T15:19:06;15.00;62.70
2929;DHT22;1474;51.460;7.150;2024-01-06T15:21:33;15.00;62.80
2929;DHT22;1474;51.460;7.150;2024-01-06T15:24:00;15.00;62.70
2929;DHT22;1474;51.460;7.150;2024-01-06T15:26:26;15.00;62.70
2929;DHT22;1474;51.460;7.150;2024-01-06T15:28:52;15.00;63.40
2929;DHT22;1474;51.460;7.150;2024-01-06T15:31:19;14.90;62.70
2929;DHT22;1474;51.460;7.150;2024-01-06T15:33:44;14.90;62.60
2929;DHT22;1474;51.460;7.150;2024-01-06T15:36:13;14.90;62.70
2929;DHT22;1474;51.460;7.150;2024-01-06T15:38:39;14.90;62.80
2929;DHT22;1474;51.460;7.150;2024-01-06T15:41:06;14.90;62.70
2929;DHT22;1474;51.460;7.150;2024-01-06T15:43:32;14.90;62.70
2929;DHT22;1474;51.460;7.150;2024-01-06T15:45:58;14.90;62.70
2929;DHT22;1474;51.460;7.150;2024-01-06T15:48:24;14.90;62.70
2929;DHT22;1474;51.460;7.150;2024-01-06T15:50:50;14.90;62.70
2929;DHT22;1474;51.460;7.150;2024-01-06T15:53:17;14.90;62.80
2929;DHT22;1474;51.460;7.150;2024-01-06T15:55:43;14.90;62.60
2929;DHT22;1474;51.460;7.150;2024-01-06T15:58:09;14.90;62.70
2929;DHT22;1474;51.460;7.150;2024-01-06T16:00:35;14.90;63.30
2929;DHT22;1474;51.460;7.150;2024-01-06T16:03:01;14.90;62.70
2929;DHT22;1474;51.460;7.150;2024-01-06T16:05:26;14.90;62.80
2929;DHT22;1474;51.460;7.150;2024-01-06T16:07:52;14.90;62.70
2929;DHT22;1474;51.460;7.150;2024-01-06T16:10:19;14.90;62.70
2929;DHT22;1474;51.460;7.150;2024-01-06T16:12:47;14.90;62.70
2929;DHT22;1474;51.460;7.150;2024-01-06T16:15:13;14.90;62.60
2929;DHT22;1474;51.460;7.150;2024-01-06T16:17:40;14.90;62.60
2929;DHT22;1474;51.460;7.150;2024-01-06T16:20:06;14.90;62.70
2929;DHT22;1474;51.460;7.150;2024-01-06T16:22:32;14.90;62.60
2929;DHT22;1474;51.460;7.150;2024-01-06T16:24:58;14.90;62.70
2929;DHT22;1474;51.460;7.150;2024-01-06T16:27:24;14.90;62.70
2929;DHT22;1474;51.460;7.150;2024-01-06T16:29:52;14.90;62.60
2929;DHT22;1474;51.460;7.150;2024-01-06T16:32:18;14.90;62.70
2929;DHT22;1474;51.460;7.150;2024-01-06T16:34:44;14.90;62.60
2929;DHT22;1474;51.460;7.150;2024-01-06T16:37:12;14.90;62.60
2929;DHT22;1474;51.460;7.150;2024-01-06T16:39:39;14.90;62.60
2929;DHT22;1474;51.460;7.150;2024-01-06T16:42:05;14.90;62.60
2929;DHT22;1474;51.460;7.150;2024-01-06T16:44:31;14.90;62.60